YSSYYSWG

Guest
Details From YSSY - Sydney Intl
To YSWG - Wagga Wagga
Flight Number -
Tags generated
Created
Modified
Stats Distance 198 nm / 367 km
Max Altitude 20,800 ft / 6,340 m
Waypoints 3
Social Downloads 3
Likes 0
Share VATSIM

Download

Looking for another format? Having issues loading an existing format? Contact us
Advertisement - Login to hide

Notes

Basic altitude profile: - Ascent Rate: 2500ft/min - Ascent Speed: 250kts - Cruise Altitude: 35000ft - Cruise Speed: 420kts - Descent Rate: 1500ft/min - Descent Speed: 250kts Options: - Use NATs: yes - Use PACOTS: yes - Use low airways: yes - Use high airways: yes

Route

YSSY MAKKA YSWG

ID Type Via Altitude Latitude Longitude Leg Dist Tot Dist Heading (true) Name
O YSSY APT - 0 ft / 0 m -33.94927˚ 151.18135˚ - 0 nm - Sydney Intl
MAKKA FIX - 20,800 ft / 6,340 m -34.43083˚ 149.33472˚ 96 nm 96 nm 252° / 253° -
O YSWG APT - 0 ft / 0 m -35.16395˚ 147.46616˚ 102 nm 198 nm 244° / 245° Wagga Wagga

Altitude Profile

Advertisement - Login to hide

Weather


0- 5 10 15 20 25 30 35+ Temperature / ° C

Clouds and Precipitation
Forecast for 2017-12-13 12:00 UTC. Updated 2 hours ago

Ground ~20,000 ft ~40,000 ft Winds

YSSY

Details ICAO YSSY (SYD)
Name Sydney Intl
Region Australia
Timezone Australia/Sydney (UTC+11.0)
Stats Elevation 21 ft / 6 m (AMSL)
Location -33.949273° 151.181347°
Runways 3
Magnetic Variation 12.599° E

METAR

YSSY 131230Z 03012KT CAVOK 22/19 Q1010 NOSIG

Decode

TAF

TAF YSSY 131130Z 1312/1418 01010KT CAVOK FM140200 04015KT CAVOK FM140900 01010KT CAVOK FM141500 18015G25KT 9000 HZ BKN010

Decode

Departure Runways

ID Width Length Bearing (true) Bearing (mag) Surface Threshold Offset Overrun Length
07 148 ft / 45 m 8,285 ft / 2,525 m 74.13° 61.53° Asphalt 0 ft / 0 m 0 ft / 0 m
16L 148 ft / 45 m 8,018 ft / 2,444 m 167.81° 155.21° Asphalt 758 ft / 231 m 0 ft / 0 m
16R 148 ft / 45 m 13,033 ft / 3,973 m 167.86° 155.26° Asphalt 279 ft / 85 m 0 ft / 0 m
25 148 ft / 45 m 8,285 ft / 2,525 m 254.12° 241.52° Asphalt 324 ft / 99 m 0 ft / 0 m
34L 148 ft / 45 m 13,033 ft / 3,973 m 347.85° 335.25° Asphalt 0 ft / 0 m 0 ft / 0 m
34R 148 ft / 45 m 8,018 ft / 2,444 m 347.81° 335.21° Asphalt 125 ft / 38 m 0 ft / 0 m

YSWG

Details ICAO YSWG (WGA)
Name Wagga Wagga
Region Australia
Timezone Australia/Sydney (UTC+11.0)
Stats Elevation 724 ft / 221 m (AMSL)
Location -35.163952° 147.466157°
Runways 2
Magnetic Variation 11.689° E

METAR

YSWG 131200Z AUTO 08007KT 9999 // NCD 26/09 Q1006

Decode

TAF

Not found

Destination Runways

ID Width Length Bearing (true) Bearing (mag) Surface Threshold Offset Overrun Length
05 148 ft / 45 m 5,790 ft / 1,765 m 62.00° 50.31° Asphalt 0 ft / 0 m 0 ft / 0 m
12 98 ft / 30 m 5,002 ft / 1,525 m 125.35° 113.66° Grass 0 ft / 0 m 0 ft / 0 m
23 148 ft / 45 m 5,790 ft / 1,765 m 241.99° 230.30° Asphalt 0 ft / 0 m 0 ft / 0 m
30 98 ft / 30 m 5,002 ft / 1,525 m 305.34° 293.65° Grass 0 ft / 0 m 0 ft / 0 m

Popular Alternatives